Miramar Marine Corps Air Station
KNKX : now visible

Airfield :











YOU CAN JOIN US ON...

 
LOGIN :

Register | Disclaimer

   EN    FR    IT 

 









Legend :    VFR   Marginal VFR   IFR   Intensive IFR   Very Intensive IFR
Visi :
Ceiling :
>= 8 km
>= 3000ft
5 to 8 km
1000 to 3000 ft
1500m to 5 km
500 to 1000 ft
800 to 1500m
200 to 500 ft
< 800m
< 200 ft
Symbols :   Thunderstorms  Fog  Heavy snow  Heavy precipitations  Wind > 20 kt






- Airport Elevation : 477 ft


KNKX - Miramar Marine Corps Air Station

CURRENT METAR :
  • 172355Z 29006KT 10SM SCT040 SCT250 16/08 A3017 RMK AO2 SLP214 T01560083 10172 20139 55009

EXPIRED METARs :
  • 172255Z 28006KT 10SM SCT040 17/08 A3017 RMK AO2 SLP212 T01670083
  • 172155Z 27006KT 10SM FEW020 SCT050 16/08 A3018 RMK AO2 SLP215 T01610083
  • 172055Z 29003KT 10SM FEW020 BKN047 16/09 A3020 RMK AO2 SLP222 T01560089 58015

TAF TAF KNKX
Valid from the 17 at 21:00 until the 18 at 21:00 UTC


1721/1821 VRB05KT 9999 FEW020 SCT050 QNH3015INS
TEMPO 1721/1801 31007KT T05/1813Z T21/1821Z



MET'MAP, your aeronautical weather chart ! - Copyright ORBIFLY December 2007 - Disclaimer

ORBIFLY MET'MAP TEAM :

Programming & Development : Alexandra Zaïnal
Concept & original design : Baudouin d'Aumeries
Assistance for programming : Marc-Olivier Méhu
Technical & hardware support : Manuel Goepfert

Contact : metmap@orbifly.com




SOURCES & CREDITS :

   NOAA       Earth
Advisory